sensor_id;sensor_type;location;lat;lon;timestamp;pressure;altitude;pressure_sealevel;temperature;humidity
79131;BME280;68530;45.194;9.142;2023-04-25T00:02:01;99824.38;;;17.03;54.19
79131;BME280;68530;45.194;9.142;2023-04-25T00:04:27;99828.00;;;17.02;54.28
79131;BME280;68530;45.194;9.142;2023-04-25T00:06:53;99828.00;;;16.65;55.36
79131;BME280;68530;45.194;9.142;2023-04-25T00:09:19;99829.19;;;16.61;55.49
79131;BME280;68530;45.194;9.142;2023-04-25T00:11:44;99836.34;;;16.85;54.95
79131;BME280;68530;45.194;9.142;2023-04-25T00:14:10;99839.03;;;16.85;54.71
79131;BME280;68530;45.194;9.142;2023-04-25T00:16:35;99837.53;;;16.81;54.48
79131;BME280;68530;45.194;9.142;2023-04-25T00:19:01;99831.69;;;16.75;54.53
79131;BME280;68530;45.194;9.142;2023-04-25T00:21:27;99836.78;;;16.79;54.32
79131;BME280;68530;45.194;9.142;2023-04-25T00:23:53;99830.28;;;16.58;54.58
79131;BME280;68530;45.194;9.142;2023-04-25T00:26:19;99833.56;;;16.62;55.09
79131;BME280;68530;45.194;9.142;2023-04-25T00:28:46;99823.78;;;16.62;54.49
79131;BME280;68530;45.194;9.142;2023-04-25T00:31:12;99826.31;;;16.64;54.41
79131;BME280;68530;45.194;9.142;2023-04-25T00:33:38;99818.03;;;16.56;54.37
79131;BME280;68530;45.194;9.142;2023-04-25T00:36:03;99812.38;;;16.60;53.91
79131;BME280;68530;45.194;9.142;2023-04-25T00:38:29;99822.56;;;16.67;53.80
79131;BME280;68530;45.194;9.142;2023-04-25T00:40:54;99829.25;;;16.72;53.56
79131;BME280;68530;45.194;9.142;2023-04-25T00:43:21;99820.31;;;16.73;53.46
79131;BME280;68530;45.194;9.142;2023-04-25T00:45:47;99819.91;;;16.67;53.39
79131;BME280;68530;45.194;9.142;2023-04-25T00:48:14;99819.00;;;16.55;53.44
79131;BME280;68530;45.194;9.142;2023-04-25T00:50:40;99824.97;;;16.58;53.38
79131;BME280;68530;45.194;9.142;2023-04-25T00:53:06;99831.50;;;16.41;53.81
79131;BME280;68530;45.194;9.142;2023-04-25T00:55:32;99825.94;;;16.44;53.75
79131;BME280;68530;45.194;9.142;2023-04-25T00:57:59;99822.09;;;16.48;53.72
79131;BME280;68530;45.194;9.142;2023-04-25T01:00:25;99833.66;;;16.36;54.13
79131;BME280;68530;45.194;9.142;2023-04-25T01:02:51;99830.63;;;16.41;53.76
79131;BME280;68530;45.194;9.142;2023-04-25T01:05:16;99827.38;;;16.37;53.83
79131;BME280;68530;45.194;9.142;2023-04-25T01:07:44;99830.97;;;16.36;54.11
79131;BME280;68530;45.194;9.142;2023-04-25T01:10:10;99825.31;;;16.41;53.90
79131;BME280;68530;45.194;9.142;2023-04-25T01:12:36;99819.28;;;16.26;54.22
79131;BME280;68530;45.194;9.142;2023-04-25T01:15:01;99822.38;;;16.32;54.00
79131;BME280;68530;45.194;9.142;2023-04-25T01:17:27;99815.56;;;16.28;54.25
79131;BME280;68530;45.194;9.142;2023-04-25T01:19:54;99821.13;;;16.25;54.36
79131;BME280;68530;45.194;9.142;2023-04-25T01:22:19;99818.78;;;16.21;54.44
79131;BME280;68530;45.194;9.142;2023-04-25T01:24:46;99815.38;;;16.18;54.31
79131;BME280;68530;45.194;9.142;2023-04-25T01:27:12;99816.63;;;16.26;54.31
79131;BME280;68530;45.194;9.142;2023-04-25T01:29:37;99819.53;;;16.23;54.13
79131;BME280;68530;45.194;9.142;2023-04-25T01:32:04;99815.66;;;16.27;53.89
79131;BME280;68530;45.194;9.142;2023-04-25T01:34:30;99822.72;;;16.15;54.19
79131;BME280;68530;45.194;9.142;2023-04-25T01:36:56;99818.38;;;16.14;54.16
79131;BME280;68530;45.194;9.142;2023-04-25T01:39:21;99825.81;;;16.22;54.29
79131;BME280;68530;45.194;9.142;2023-04-25T01:41:47;99826.22;;;16.15;54.24
79131;BME280;68530;45.194;9.142;2023-04-25T01:44:13;99836.47;;;15.96;54.66
79131;BME280;68530;45.194;9.142;2023-04-25T01:46:40;99836.25;;;16.12;54.47
79131;BME280;68530;45.194;9.142;2023-04-25T01:49:05;99840.69;;;16.11;54.25
79131;BME280;68530;45.194;9.142;2023-04-25T01:51:30;99842.41;;;16.12;54.25
79131;BME280;68530;45.194;9.142;2023-04-25T01:53:57;99834.63;;;16.09;54.19
79131;BME280;68530;45.194;9.142;2023-04-25T01:56:22;99841.88;;;16.07;54.22
79131;BME280;68530;45.194;9.142;2023-04-25T01:58:48;99851.34;;;15.98;54.29
79131;BME280;68530;45.194;9.142;2023-04-25T02:01:14;99844.03;;;16.02;54.62
79131;BME280;68530;45.194;9.142;2023-04-25T02:03:39;99840.06;;;15.95;54.64
79131;BME280;68530;45.194;9.142;2023-04-25T02:06:05;99840.81;;;15.97;54.62
79131;BME280;68530;45.194;9.142;2023-04-25T02:08:30;99844.94;;;15.88;54.60
79131;BME280;68530;45.194;9.142;2023-04-25T02:10:56;99838.59;;;15.90;54.91
79131;BME280;68530;45.194;9.142;2023-04-25T02:13:22;99833.06;;;15.94;54.80
79131;BME280;68530;45.194;9.142;2023-04-25T02:15:47;99830.06;;;15.85;54.81
79131;BME280;68530;45.194;9.142;2023-04-25T02:18:12;99830.91;;;15.86;54.98
79131;BME280;68530;45.194;9.142;2023-04-25T02:20:38;99818.28;;;15.76;55.27
79131;BME280;68530;45.194;9.142;2023-04-25T02:23:03;99821.53;;;15.80;54.83
79131;BME280;68530;45.194;9.142;2023-04-25T02:25:29;99816.34;;;15.79;54.85
79131;BME280;68530;45.194;9.142;2023-04-25T02:27:54;99816.75;;;15.72;55.15
79131;BME280;68530;45.194;9.142;2023-04-25T02:30:20;99804.56;;;15.70;55.60
79131;BME280;68530;45.194;9.142;2023-04-25T02:32:45;99793.19;;;15.68;55.00
79131;BME280;68530;45.194;9.142;2023-04-25T02:35:11;99797.53;;;15.69;55.10
79131;BME280;68530;45.194;9.142;2023-04-25T02:37:37;99795.63;;;15.71;55.05
79131;BME280;68530;45.194;9.142;2023-04-25T02:40:03;99797.53;;;15.69;55.04
79131;BME280;68530;45.194;9.142;2023-04-25T02:42:29;99795.19;;;15.64;55.24
79131;BME280;68530;45.194;9.142;2023-04-25T02:44:55;99799.66;;;15.63;55.59
79131;BME280;68530;45.194;9.142;2023-04-25T02:47:20;99794.31;;;15.63;55.27
79131;BME280;68530;45.194;9.142;2023-04-25T02:49:46;99802.09;;;15.54;55.26
79131;BME280;68530;45.194;9.142;2023-04-25T02:52:12;99805.81;;;15.51;55.62
79131;BME280;68530;45.194;9.142;2023-04-25T02:54:38;99796.91;;;15.52;55.50
79131;BME280;68530;45.194;9.142;2023-04-25T02:57:04;99798.25;;;15.45;55.64
79131;BME280;68530;45.194;9.142;2023-04-25T02:59:29;99798.78;;;15.50;55.71
79131;BME280;68530;45.194;9.142;2023-04-25T03:01:54;99805.56;;;15.41;55.98
79131;BME280;68530;45.194;9.142;2023-04-25T03:04:20;99809.41;;;15.37;55.73
79131;BME280;68530;45.194;9.142;2023-04-25T03:06:46;99810.50;;;15.34;56.14
79131;BME280;68530;45.194;9.142;2023-04-25T03:09:11;99804.09;;;15.24;56.04
79131;BME280;68530;45.194;9.142;2023-04-25T03:11:38;99804.09;;;15.24;56.30
79131;BME280;68530;45.194;9.142;2023-04-25T03:14:04;99806.31;;;15.30;56.30
79131;BME280;68530;45.194;9.142;2023-04-25T03:16:29;99817.16;;;15.40;56.17
79131;BME280;68530;45.194;9.142;2023-04-25T03:18:56;99820.03;;;15.24;56.46
79131;BME280;68530;45.194;9.142;2023-04-25T03:21:22;99818.63;;;15.18;56.57
79131;BME280;68530;45.194;9.142;2023-04-25T03:23:47;99813.66;;;15.27;56.27
79131;BME280;68530;45.194;9.142;2023-04-25T03:26:13;99814.91;;;15.21;56.77
79131;BME280;68530;45.194;9.142;2023-04-25T03:28:38;99811.97;;;15.26;56.13
79131;BME280;68530;45.194;9.142;2023-04-25T03:31:05;99820.97;;;15.23;56.57
79131;BME280;68530;45.194;9.142;2023-04-25T03:33:30;99819.81;;;15.27;56.27
79131;BME280;68530;45.194;9.142;2023-04-25T03:35:56;99821.28;;;15.31;56.12
79131;BME280;68530;45.194;9.142;2023-04-25T03:38:21;99816.72;;;15.20;56.20
79131;BME280;68530;45.194;9.142;2023-04-25T03:40:46;99820.47;;;15.31;55.87
79131;BME280;68530;45.194;9.142;2023-04-25T03:43:12;99829.78;;;15.24;56.57
79131;BME280;68530;45.194;9.142;2023-04-25T03:45:37;99832.34;;;15.25;56.53
79131;BME280;68530;45.194;9.142;2023-04-25T03:48:03;99839.56;;;15.23;56.35
79131;BME280;68530;45.194;9.142;2023-04-25T03:50:28;99830.50;;;15.13;56.55
79131;BME280;68530;45.194;9.142;2023-04-25T03:52:54;99831.25;;;15.15;56.56
79131;BME280;68530;45.194;9.142;2023-04-25T03:55:19;99829.09;;;15.07;56.95
79131;BME280;68530;45.194;9.142;2023-04-25T03:57:45;99823.03;;;15.05;56.89
79131;BME280;68530;45.194;9.142;2023-04-25T04:00:10;99835.47;;;15.04;56.78
79131;BME280;68530;45.194;9.142;2023-04-25T04:02:36;99838.22;;;15.03;57.11
79131;BME280;68530;45.194;9.142;2023-04-25T04:05:03;99830.06;;;15.06;56.43
79131;BME280;68530;45.194;9.142;2023-04-25T04:07:28;99839.94;;;15.04;56.72
79131;BME280;68530;45.194;9.142;2023-04-25T04:09:54;99835.03;;;14.98;57.25
79131;BME280;68530;45.194;9.142;2023-04-25T04:12:19;99835.69;;;15.01;57.02
79131;BME280;68530;45.194;9.142;2023-04-25T04:14:45;99843.09;;;14.96;56.89
79131;BME280;68530;45.194;9.142;2023-04-25T04:17:10;99842.78;;;15.01;57.38
79131;BME280;68530;45.194;9.142;2023-04-25T04:19:35;99852.53;;;15.00;57.28
79131;BME280;68530;45.194;9.142;2023-04-25T04:22:01;99854.16;;;15.03;57.08
79131;BME280;68530;45.194;9.142;2023-04-25T04:24:26;99851.13;;;15.09;57.20
79131;BME280;68530;45.194;9.142;2023-04-25T04:26:52;99842.56;;;14.91;57.16
79131;BME280;68530;45.194;9.142;2023-04-25T04:29:18;99856.94;;;15.01;57.12
79131;BME280;68530;45.194;9.142;2023-04-25T04:31:49;99853.91;;;14.93;57.29
79131;BME280;68530;45.194;9.142;2023-04-25T04:34:16;99849.16;;;14.98;57.57
79131;BME280;68530;45.194;9.142;2023-04-25T04:36:42;99853.16;;;14.91;57.61
79131;BME280;68530;45.194;9.142;2023-04-25T04:39:07;99858.94;;;14.98;57.22
79131;BME280;68530;45.194;9.142;2023-04-25T04:41:34;99852.41;;;14.89;57.38
79131;BME280;68530;45.194;9.142;2023-04-25T04:43:59;99852.41;;;14.89;57.51
79131;BME280;68530;45.194;9.142;2023-04-25T04:46:26;99851.47;;;14.90;57.49
79131;BME280;68530;45.194;9.142;2023-04-25T04:48:53;99857.31;;;14.95;57.27
79131;BME280;68530;45.194;9.142;2023-04-25T04:51:18;99860.59;;;14.86;57.67
79131;BME280;68530;45.194;9.142;2023-04-25T04:53:44;99868.34;;;14.89;57.20
79131;BME280;68530;45.194;9.142;2023-04-25T04:56:09;99868.44;;;14.87;57.52
79131;BME280;68530;45.194;9.142;2023-04-25T04:58:36;99867.59;;;14.87;57.46
79131;BME280;68530;45.194;9.142;2023-04-25T05:01:02;99849.53;;;14.79;57.54
79131;BME280;68530;45.194;9.142;2023-04-25T05:03:27;99873.03;;;14.98;57.35
79131;BME280;68530;45.194;9.142;2023-04-25T05:05:53;99872.41;;;14.95;57.23
79131;BME280;68530;45.194;9.142;2023-04-25T05:08:18;99872.94;;;15.00;57.54
79131;BME280;68530;45.194;9.142;2023-04-25T05:10:43;99870.28;;;15.00;57.29
79131;BME280;68530;45.194;9.142;2023-04-25T05:13:09;99874.75;;;14.99;57.32
79131;BME280;68530;45.194;9.142;2023-04-25T05:15:34;99870.53;;;15.10;57.23
79131;BME280;68530;45.194;9.142;2023-04-25T05:17:59;99875.66;;;15.13;56.88
79131;BME280;68530;45.194;9.142;2023-04-25T05:20:25;99885.09;;;15.17;57.03
79131;BME280;68530;45.194;9.142;2023-04-25T05:22:50;99873.13;;;15.24;56.86
79131;BME280;68530;45.194;9.142;2023-04-25T05:25:16;99877.28;;;15.28;57.14
79131;BME280;68530;45.194;9.142;2023-04-25T05:27:41;99878.16;;;15.29;57.08
79131;BME280;68530;45.194;9.142;2023-04-25T05:30:07;99859.22;;;15.20;56.93
79131;BME280;68530;45.194;9.142;2023-04-25T05:32:33;99875.78;;;15.24;57.22
79131;BME280;68530;45.194;9.142;2023-04-25T05:34:59;99883.41;;;15.43;57.16
79131;BME280;68530;45.194;9.142;2023-04-25T05:37:25;99888.06;;;15.40;57.06
79131;BME280;68530;45.194;9.142;2023-04-25T05:39:50;99887.63;;;15.46;56.98
79131;BME280;68530;45.194;9.142;2023-04-25T05:42:15;99895.41;;;15.49;56.73
79131;BME280;68530;45.194;9.142;2023-04-25T05:44:41;99896.91;;;15.53;56.99
79131;BME280;68530;45.194;9.142;2023-04-25T05:47:06;99910.53;;;15.61;56.74
79131;BME280;68530;45.194;9.142;2023-04-25T05:49:32;99902.75;;;15.58;56.81
79131;BME280;68530;45.194;9.142;2023-04-25T05:51:57;99899.06;;;15.61;56.83
79131;BME280;68530;45.194;9.142;2023-04-25T05:54:22;99906.50;;;15.69;56.60
79131;BME280;68530;45.194;9.142;2023-04-25T05:56:48;99910.00;;;15.56;57.12
79131;BME280;68530;45.194;9.142;2023-04-25T05:59:13;99902.09;;;15.55;57.25
79131;BME280;68530;45.194;9.142;2023-04-25T06:01:38;99912.13;;;15.64;57.48
79131;BME280;68530;45.194;9.142;2023-04-25T06:04:05;99905.56;;;15.70;57.04
79131;BME280;68530;45.194;9.142;2023-04-25T06:06:30;99902.34;;;15.65;57.31
79131;BME280;68530;45.194;9.142;2023-04-25T06:08:56;99919.25;;;15.63;57.32
79131;BME280;68530;45.194;9.142;2023-04-25T06:11:21;99916.78;;;15.60;57.78
79131;BME280;68530;45.194;9.142;2023-04-25T06:13:46;99913.72;;;15.67;57.58
79131;BME280;68530;45.194;9.142;2023-04-25T06:16:12;99903.63;;;15.72;57.22
79131;BME280;68530;45.194;9.142;2023-04-25T06:18:37;99896.63;;;15.71;57.51
79131;BME280;68530;45.194;9.142;2023-04-25T06:21:03;99904.28;;;15.75;57.52
79131;BME280;68530;45.194;9.142;2023-04-25T06:23:28;99895.22;;;15.78;57.40
79131;BME280;68530;45.194;9.142;2023-04-25T06:25:53;99910.00;;;15.82;57.63
79131;BME280;68530;45.194;9.142;2023-04-25T06:28:19;99902.19;;;15.94;57.31
79131;BME280;68530;45.194;9.142;2023-04-25T06:30:44;99895.38;;;15.89;57.19
79131;BME280;68530;45.194;9.142;2023-04-25T06:33:10;99911.78;;;15.96;57.33
79131;BME280;68530;45.194;9.142;2023-04-25T06:35:35;99910.16;;;15.94;57.25
79131;BME280;68530;45.194;9.142;2023-04-25T06:38:00;99900.59;;;15.91;57.14
79131;BME280;68530;45.194;9.142;2023-04-25T06:40:26;99915.41;;;15.95;57.53
79131;BME280;68530;45.194;9.142;2023-04-25T06:42:51;99903.66;;;15.98;57.25
79131;BME280;68530;45.194;9.142;2023-04-25T06:45:17;99911.13;;;15.93;57.01
79131;BME280;68530;45.194;9.142;2023-04-25T06:47:42;99902.00;;;16.10;56.88
79131;BME280;68530;45.194;9.142;2023-04-25T06:50:08;99903.28;;;16.04;56.78
79131;BME280;68530;45.194;9.142;2023-04-25T06:52:33;99907.63;;;16.05;57.05
79131;BME280;68530;45.194;9.142;2023-04-25T06:54:59;99906.97;;;16.14;56.69
79131;BME280;68530;45.194;9.142;2023-04-25T06:57:24;99908.78;;;16.14;57.16
79131;BME280;68530;45.194;9.142;2023-04-25T06:59:49;99907.72;;;16.16;57.08
79131;BME280;68530;45.194;9.142;2023-04-25T07:02:15;99899.97;;;16.26;56.67
79131;BME280;68530;45.194;9.142;2023-04-25T07:04:40;99903.38;;;16.28;56.75
79131;BME280;68530;45.194;9.142;2023-04-25T07:07:05;99909.63;;;16.40;56.19
79131;BME280;68530;45.194;9.142;2023-04-25T07:09:31;99896.97;;;16.18;56.93
79131;BME280;68530;45.194;9.142;2023-04-25T07:11:59;99908.47;;;16.18;56.83
79131;BME280;68530;45.194;9.142;2023-04-25T07:14:24;99907.31;;;16.10;57.08
79131;BME280;68530;45.194;9.142;2023-04-25T07:16:50;99896.03;;;16.19;56.80
79131;BME280;68530;45.194;9.142;2023-04-25T07:19:15;99908.56;;;16.30;56.23
79131;BME280;68530;45.194;9.142;2023-04-25T07:21:41;99905.59;;;16.22;56.44
79131;BME280;68530;45.194;9.142;2023-04-25T07:24:06;99901.75;;;16.26;56.67
79131;BME280;68530;45.194;9.142;2023-04-25T07:26:32;99905.25;;;16.39;56.19
79131;BME280;68530;45.194;9.142;2023-04-25T07:28:57;99907.91;;;16.52;56.15
79131;BME280;68530;45.194;9.142;2023-04-25T07:31:23;99906.28;;;16.62;55.87
79131;BME280;68530;45.194;9.142;2023-04-25T07:33:48;99896.38;;;16.65;55.36
79131;BME280;68530;45.194;9.142;2023-04-25T07:36:13;99909.38;;;16.69;55.32
79131;BME280;68530;45.194;9.142;2023-04-25T07:38:40;99903.81;;;16.72;55.30
79131;BME280;68530;45.194;9.142;2023-04-25T07:41:05;99883.38;;;16.60;55.65
79131;BME280;68530;45.194;9.142;2023-04-25T07:43:32;99910.09;;;16.71;56.03
79131;BME280;68530;45.194;9.142;2023-04-25T07:45:57;99899.13;;;16.76;55.93
79131;BME280;68530;45.194;9.142;2023-04-25T07:48:22;99910.69;;;16.88;55.98
79131;BME280;68530;45.194;9.142;2023-04-25T07:50:48;99909.00;;;16.87;55.57
79131;BME280;68530;45.194;9.142;2023-04-25T07:53:14;99897.06;;;16.80;55.82
79131;BME280;68530;45.194;9.142;2023-04-25T07:55:39;99898.59;;;16.95;56.08
79131;BME280;68530;45.194;9.142;2023-04-25T07:58:08;99899.03;;;17.02;55.57
79131;BME280;68530;45.194;9.142;2023-04-25T08:00:34;99903.06;;;17.08;55.65
79131;BME280;68530;45.194;9.142;2023-04-25T08:03:00;99901.16;;;17.10;55.31
79131;BME280;68530;45.194;9.142;2023-04-25T08:05:25;99908.81;;;17.14;54.86
79131;BME280;68530;45.194;9.142;2023-04-25T08:07:50;99906.97;;;17.15;54.21
79131;BME280;68530;45.194;9.142;2023-04-25T08:10:16;99914.53;;;17.21;54.38
79131;BME280;68530;45.194;9.142;2023-04-25T08:12:41;99915.66;;;17.30;54.36
79131;BME280;68530;45.194;9.142;2023-04-25T08:15:07;99908.72;;;17.27;54.00
79131;BME280;68530;45.194;9.142;2023-04-25T08:17:33;99904.88;;;17.31;54.31
79131;BME280;68530;45.194;9.142;2023-04-25T08:19:58;99903.56;;;17.37;53.48
79131;BME280;68530;45.194;9.142;2023-04-25T08:22:24;99910.59;;;17.38;52.97
79131;BME280;68530;45.194;9.142;2023-04-25T08:24:49;99907.72;;;17.41;52.99
79131;BME280;68530;45.194;9.142;2023-04-25T08:27:14;99907.81;;;17.40;53.08
79131;BME280;68530;45.194;9.142;2023-04-25T08:29:41;99903.56;;;17.37;52.32
79131;BME280;68530;45.194;9.142;2023-04-25T08:32:07;99908.78;;;17.39;52.00
79131;BME280;68530;45.194;9.142;2023-04-25T08:34:33;99909.28;;;17.44;51.90
79131;BME280;68530;45.194;9.142;2023-04-25T08:36:58;99891.34;;;17.46;52.60
79131;BME280;68530;45.194;9.142;2023-04-25T08:39:24;99907.16;;;17.60;52.42
79131;BME280;68530;45.194;9.142;2023-04-25T08:41:49;99914.53;;;17.57;51.16
79131;BME280;68530;45.194;9.142;2023-04-25T08:44:16;99905.13;;;17.64;51.02
79131;BME280;68530;45.194;9.142;2023-04-25T08:46:42;99907.75;;;17.53;50.17
79131;BME280;68530;45.194;9.142;2023-04-25T08:49:08;99904.34;;;17.51;50.78
79131;BME280;68530;45.194;9.142;2023-04-25T08:51:36;99911.13;;;17.55;50.98
79131;BME280;68530;45.194;9.142;2023-04-25T08:54:10;99922.19;;;17.61;50.83
79131;BME280;68530;45.194;9.142;2023-04-25T08:56:38;99920.63;;;17.70;50.81
79131;BME280;68530;45.194;9.142;2023-04-25T08:59:06;99920.53;;;17.72;50.44
79131;BME280;68530;45.194;9.142;2023-04-25T09:01:34;99909.88;;;17.72;50.46
79131;BME280;68530;45.194;9.142;2023-04-25T09:04:00;99911.81;;;17.81;50.37
79131;BME280;68530;45.194;9.142;2023-04-25T09:06:27;99915.00;;;17.86;50.34
79131;BME280;68530;45.194;9.142;2023-04-25T09:08:53;99927.13;;;17.90;50.44
79131;BME280;68530;45.194;9.142;2023-04-25T09:11:18;99913.50;;;17.82;50.11
79131;BME280;68530;45.194;9.142;2023-04-25T09:13:45;99914.72;;;17.78;49.83
79131;BME280;68530;45.194;9.142;2023-04-25T09:16:10;99919.81;;;17.70;49.25
79131;BME280;68530;45.194;9.142;2023-04-25T09:18:36;99899.88;;;17.51;49.39
79131;BME280;68530;45.194;9.142;2023-04-25T09:21:10;99920.38;;;17.62;49.57
79131;BME280;68530;45.194;9.142;2023-04-25T09:23:45;99917.38;;;17.78;49.42
79131;BME280;68530;45.194;9.142;2023-04-25T09:26:14;99919.91;;;18.04;50.56
79131;BME280;68530;45.194;9.142;2023-04-25T09:28:40;99919.81;;;18.28;49.17
79131;BME280;68530;45.194;9.142;2023-04-25T09:31:09;99916.78;;;18.33;48.91
79131;BME280;68530;45.194;9.142;2023-04-25T09:33:37;99928.41;;;18.32;48.98
79131;BME280;68530;45.194;9.142;2023-04-25T09:36:07;99924.19;;;18.29;48.68
79131;BME280;68530;45.194;9.142;2023-04-25T09:38:44;99922.84;;;18.24;48.94
79131;BME280;68530;45.194;9.142;2023-04-25T09:41:11;99926.22;;;18.14;48.15
79131;BME280;68530;45.194;9.142;2023-04-25T09:43:37;99924.88;;;18.20;48.68
79131;BME280;68530;45.194;9.142;2023-04-25T09:46:08;99925.41;;;18.25;47.76
79131;BME280;68530;45.194;9.142;2023-04-25T09:48:34;99917.72;;;18.09;47.37
79131;BME280;68530;45.194;9.142;2023-04-25T09:51:13;99923.31;;;18.06;47.62
79131;BME280;68530;45.194;9.142;2023-04-25T09:53:40;99923.31;;;18.17;48.09
79131;BME280;68530;45.194;9.142;2023-04-25T09:56:08;99919.19;;;18.25;48.53
79131;BME280;68530;45.194;9.142;2023-04-25T09:58:35;99922.34;;;18.07;47.72
79131;BME280;68530;45.194;9.142;2023-04-25T10:01:20;99908.22;;;17.94;47.51
79131;BME280;68530;45.194;9.142;2023-04-25T10:03:47;99907.84;;;17.98;48.07
79131;BME280;68530;45.194;9.142;2023-04-25T10:06:19;99921.25;;;18.10;48.00
79131;BME280;68530;45.194;9.142;2023-04-25T10:08:49;99908.13;;;18.07;47.07
79131;BME280;68530;45.194;9.142;2023-04-25T10:11:16;99914.31;;;18.07;47.55
79131;BME280;68530;45.194;9.142;2023-04-25T10:13:42;99907.53;;;18.14;47.97
79131;BME280;68530;45.194;9.142;2023-04-25T10:16:08;99906.13;;;18.33;47.95
79131;BME280;68530;45.194;9.142;2023-04-25T10:18:33;99900.53;;;18.36;47.38
79131;BME280;68530;45.194;9.142;2023-04-25T10:21:04;99905.88;;;18.36;47.56
79131;BME280;68530;45.194;9.142;2023-04-25T10:23:30;99901.13;;;18.28;47.36
79131;BME280;68530;45.194;9.142;2023-04-25T10:25:57;99906.94;;;18.11;47.43
79131;BME280;68530;45.194;9.142;2023-04-25T10:28:22;99907.53;;;18.14;47.70
79131;BME280;68530;45.194;9.142;2023-04-25T10:31:04;99912.41;;;18.21;47.56
79131;BME280;68530;45.194;9.142;2023-04-25T10:35:58;99916.03;;;18.42;47.60
79131;BME280;68530;45.194;9.142;2023-04-25T10:38:25;99912.28;;;18.45;47.19
79131;BME280;68530;45.194;9.142;2023-04-25T10:41:18;99923.34;;;18.52;47.23
79131;BME280;68530;45.194;9.142;2023-04-25T10:43:45;99909.88;;;18.42;46.91
79131;BME280;68530;45.194;9.142;2023-04-25T10:46:24;99906.69;;;18.37;46.54
79131;BME280;68530;45.194;9.142;2023-04-25T10:48:57;99905.63;;;18.39;46.46
79131;BME280;68530;45.194;9.142;2023-04-25T10:51:25;99900.63;;;18.35;46.58
79131;BME280;68530;45.194;9.142;2023-04-25T10:56:21;99907.94;;;18.44;47.16
79131;BME280;68530;45.194;9.142;2023-04-25T10:58:47;99905.47;;;18.52;47.13
79131;BME280;68530;45.194;9.142;2023-04-25T11:01:24;99901.72;;;18.55;46.90
79131;BME280;68530;45.194;9.142;2023-04-25T11:03:57;99915.44;;;18.50;46.53
79131;BME280;68530;45.194;9.142;2023-04-25T11:06:29;99907.19;;;18.53;46.61
79131;BME280;68530;45.194;9.142;2023-04-25T11:08:56;99904.03;;;18.59;46.95
79131;BME280;68530;45.194;9.142;2023-04-25T11:11:22;99907.06;;;18.66;46.96
79131;BME280;68530;45.194;9.142;2023-04-25T11:13:48;99895.00;;;18.72;47.09
79131;BME280;68530;45.194;9.142;2023-04-25T11:16:15;99889.66;;;18.72;47.01
79131;BME280;68530;45.194;9.142;2023-04-25T11:18:44;99888.69;;;18.73;47.00
79131;BME280;68530;45.194;9.142;2023-04-25T11:21:10;99891.25;;;18.63;46.21
79131;BME280;68530;45.194;9.142;2023-04-25T11:23:36;99881.56;;;18.62;49.55
79131;BME280;68530;45.194;9.142;2023-04-25T11:26:03;99873.66;;;18.72;51.21
79131;BME280;68530;45.194;9.142;2023-04-25T11:28:28;99871.69;;;18.85;54.33
79131;BME280;68530;45.194;9.142;2023-04-25T11:30:54;99869.19;;;18.61;46.97
79131;BME280;68530;45.194;9.142;2023-04-25T11:33:24;99867.28;;;18.52;52.02
79131;BME280;68530;45.194;9.142;2023-04-25T11:35:51;99869.31;;;18.59;50.60
79131;BME280;68530;45.194;9.142;2023-04-25T11:38:17;99864.69;;;18.62;53.97
79131;BME280;68530;45.194;9.142;2023-04-25T11:40:43;99863.59;;;18.64;52.70
79131;BME280;68530;45.194;9.142;2023-04-25T11:43:08;99862.59;;;18.77;56.98
79131;BME280;68530;45.194;9.142;2023-04-25T11:45:36;99861.00;;;18.85;58.79
79131;BME280;68530;45.194;9.142;2023-04-25T11:48:02;99849.69;;;18.93;59.02
79131;BME280;68530;45.194;9.142;2023-04-25T11:50:28;99856.25;;;18.89;58.15
79131;BME280;68530;45.194;9.142;2023-04-25T11:52:56;99848.25;;;18.89;59.09
79131;BME280;68530;45.194;9.142;2023-04-25T11:55:22;99851.16;;;18.86;54.16
79131;BME280;68530;45.194;9.142;2023-04-25T11:57:49;99843.59;;;18.58;52.33
79131;BME280;68530;45.194;9.142;2023-04-25T12:00:21;99848.16;;;18.68;57.53
79131;BME280;68530;45.194;9.142;2023-04-25T12:02:51;99849.69;;;18.82;50.91
79131;BME280;68530;45.194;9.142;2023-04-25T12:05:17;99850.69;;;18.81;55.19
79131;BME280;68530;45.194;9.142;2023-04-25T12:07:43;99849.47;;;18.85;59.48
79131;BME280;68530;45.194;9.142;2023-04-25T12:10:18;99852.09;;;18.96;57.76
79131;BME280;68530;45.194;9.142;2023-04-25T12:12:46;99849.22;;;18.99;60.58
79131;BME280;68530;45.194;9.142;2023-04-25T12:15:18;99840.22;;;18.89;58.92
79131;BME280;68530;45.194;9.142;2023-04-25T12:17:48;99851.75;;;19.01;60.93
79131;BME280;68530;45.194;9.142;2023-04-25T12:20:15;99844.94;;;19.08;59.08
79131;BME280;68530;45.194;9.142;2023-04-25T12:22:46;99847.84;;;19.05;55.50
79131;BME280;68530;45.194;9.142;2023-04-25T12:28:18;99836.31;;;18.93;57.94
79131;BME280;68530;45.194;9.142;2023-04-25T12:33:24;99836.78;;;18.98;56.00
79131;BME280;68530;45.194;9.142;2023-04-25T12:35:49;99832.22;;;19.00;53.96
79131;BME280;68530;45.194;9.142;2023-04-25T12:38:21;99840.44;;;18.97;61.31
79131;BME280;68530;45.194;9.142;2023-04-25T12:40:46;99831.25;;;19.01;57.29
79131;BME280;68530;45.194;9.142;2023-04-25T12:43:12;99827.69;;;18.89;56.73
79131;BME280;68530;45.194;9.142;2023-04-25T12:45:37;99835.34;;;18.94;59.61
79131;BME280;68530;45.194;9.142;2023-04-25T12:48:03;99823.78;;;19.05;46.77
79131;BME280;68530;45.194;9.142;2023-04-25T12:50:28;99819.03;;;19.09;57.14
79131;BME280;68530;45.194;9.142;2023-04-25T12:52:53;99828.03;;;18.96;52.55
79131;BME280;68530;45.194;9.142;2023-04-25T12:55:19;99823.78;;;19.05;56.83
79131;BME280;68530;45.194;9.142;2023-04-25T12:57:44;99824.34;;;19.20;58.55
79131;BME280;68530;45.194;9.142;2023-04-25T13:00:10;99820.50;;;19.34;52.20
79131;BME280;68530;45.194;9.142;2023-04-25T13:02:35;99820.88;;;19.29;55.61
79131;BME280;68530;45.194;9.142;2023-04-25T13:05:01;99815.66;;;19.07;53.70
79131;BME280;68530;45.194;9.142;2023-04-25T13:07:26;99822.69;;;19.08;54.65